Welcome to Northern Hawkes Bay. New Zealand.
PWS Header
      nz Flag



Hit Counter


W3C Valid W3C Valid logo


    Wairoa

Select any of the Stations below to visit their websites.










Historic Data from Weather Underground
Select the location of interest below. Wairoa is the default. Please have patience, this Data is slow to load in.
Northern Hawkes Bay Historical Data
Daily Summary for January 11, 2017 Units:  Metric    English   Both
« Previous Day
Next Day »
Daily Weekly Monthly Yearly Custom
  High: Low: Average:
Temperature: 32.4 °C 15.7 °C 24 °C
Dew Point: 16.5 °C 8.2 °C 13.2 °C
Humidity: 95% 24% 56%
Wind Speed: 15.8km/h 0.0km/h 5.6km/h
Wind Gust: 23.3km/h - -
Wind- - SW
Pressure: 1013.8 hPa 1008.4 hPa -
Precipitation: 0.0 mm    
Historical Graphs
 
 
Tabular Data for January 11, 2017
Time Temperature Dew Point Pressure Wind Wind Speed Wind Gust Humidity Rainfall Rate (Hourly) solar
00:00 17.8 °C 16.3 °C 1013.4 hPa Calm   2.6 km/h 91% 0.0 mm 0 W/m2
00:05 17.6 °C 16.1 °C 1013.4 hPa Calm   2.6 km/h 91% 0.0 mm 0 W/m2
00:10 17.6 °C 16.1 °C 1013.4 hPa Calm   2.6 km/h 91% 0.0 mm 0 W/m2
00:15 17.4 °C 15.9 °C 1013.8 hPa North 3.5 km/h 5.0 km/h 91% 0.0 mm 0 W/m2
00:20 17.3 °C 15.8 °C 1013.4 hPa Calm   5.0 km/h 91% 0.0 mm 0 W/m2
00:25 17.2 °C 15.7 °C 1013.4 hPa Calm   5.0 km/h 91% 0.0 mm 0 W/m2
00:30 17.1 °C 15.6 °C 1013.1 hPa Calm   2.6 km/h 91% 0.0 mm 0 W/m2
00:35 17.0 °C 15.6 °C 1013.1 hPa North 1.1 km/h 2.6 km/h 91% 0.0 mm 0 W/m2
00:41 17.0 °C 15.6 °C 1013.4 hPa North 2.6 km/h 5.0 km/h 91% 0.0 mm 0 W/m2
00:46 16.9 °C 15.6 °C 1013.4 hPa North 2.6 km/h 5.0 km/h 92% 0.0 mm 0 W/m2
00:51 16.8 °C 15.5 °C 1013.4 hPa Calm   5.0 km/h 92% 0.0 mm 0 W/m2
00:56 16.7 °C 15.4 °C 1013.1 hPa North 2.6 km/h 5.0 km/h 92% 0.0 mm 0 W/m2
01:01 16.6 °C 15.3 °C 1013.1 hPa Calm   3.5 km/h 92% 0.0 mm 0 W/m2
01:06 16.5 °C 15.2 °C 1013.1 hPa Calm   3.5 km/h 92% 0.0 mm 0 W/m2
01:11 16.5 °C 15.2 °C 1013.1 hPa North 2.6 km/h 3.5 km/h 92% 0.0 mm 0 W/m2
01:16 16.4 °C 15.1 °C 1012.8 hPa North 2.6 km/h 5.0 km/h 92% 0.0 mm 0 W/m2
01:21 16.3 °C 15.0 °C 1013.1 hPa North 2.6 km/h 5.0 km/h 92% 0.0 mm 0 W/m2
01:26 16.2 °C 15.1 °C 1012.8 hPa North 2.6 km/h 5.0 km/h 93% 0.0 mm 0 W/m2
01:31 16.1 °C 15.0 °C 1012.8 hPa North 1.1 km/h 5.0 km/h 93% 0.0 mm 0 W/m2
01:36 16.0 °C 14.9 °C 1012.8 hPa North 2.6 km/h 5.0 km/h 93% 0.0 mm 0 W/m2
01:41 15.9 °C 14.9 °C 1012.8 hPa North 2.6 km/h 5.0 km/h 94% 0.0 mm 0 W/m2
01:46 15.9 °C 14.9 °C 1012.8 hPa North 3.5 km/h 6.1 km/h 94% 0.0 mm 0 W/m2
01:56 15.8 °C 14.8 °C 1012.8 hPa North 2.6 km/h 5.0 km/h 94% 0.0 mm 0 W/m2
02:01 15.7 °C 14.7 °C 1012.8 hPa NNW 2.6 km/h 7.2 km/h 94% 0.0 mm 0 W/m2
02:06 15.7 °C 14.7 °C 1012.8 hPa NNW 3.5 km/h 7.2 km/h 94% 0.0 mm 0 W/m2
02:11 15.7 °C 14.9 °C 1012.8 hPa North 2.6 km/h 7.2 km/h 95% 0.0 mm 0 W/m2
02:16 15.9 °C 15.1 °C 1012.8 hPa North 6.1 km/h 8.7 km/h 95% 0.0 mm 0 W/m2
02:21 16.2 °C 15.2 °C 1012.8 hPa NNW 6.1 km/h 8.7 km/h 94% 0.0 mm 0 W/m2
02:26 16.3 °C 15.3 °C 1012.8 hPa NNW 5.0 km/h 8.7 km/h 94% 0.0 mm 0 W/m2
02:31 16.3 °C 15.2 °C 1012.8 hPa NNW 6.1 km/h 12.2 km/h 93% 0.0 mm 0 W/m2
02:36 16.4 °C 15.1 °C 1012.4 hPa NNW 2.6 km/h 12.2 km/h 92% 0.0 mm 0 W/m2
02:46 16.4 °C 15.1 °C 1012.4 hPa NW 2.6 km/h 5.0 km/h 92% 0.0 mm 0 W/m2
02:51 16.3 °C 14.8 °C 1012.4 hPa NW 1.1 km/h 5.0 km/h 91% 0.0 mm 0 W/m2
02:56 16.1 °C 14.6 °C 1012.4 hPa Calm   5.0 km/h 91% 0.0 mm 0 W/m2
03:01 16.0 °C 14.7 °C 1012.4 hPa Calm   5.0 km/h 92% 0.0 mm 0 W/m2
03:06 15.9 °C 14.8 °C 1012.8 hPa NW 1.1 km/h 2.6 km/h 93% 0.0 mm 0 W/m2
03:11 15.9 °C 14.8 °C 1012.4 hPa NNW 3.5 km/h 7.2 km/h 93% 0.0 mm 0 W/m2
03:16 15.9 °C 14.8 °C 1012.4 hPa NNW 5.0 km/h 11.1 km/h 93% 0.0 mm 0 W/m2
03:21 15.9 °C 14.9 °C 1012.4 hPa NNW 3.5 km/h 11.1 km/h 94% 0.0 mm 0 W/m2
03:26 16.0 °C 14.9 °C 1012.4 hPa NNW 6.1 km/h 9.7 km/h 93% 0.0 mm 0 W/m2
03:31 16.0 °C 14.9 °C 1012.4 hPa NNW 7.2 km/h 9.7 km/h 93% 0.0 mm 0 W/m2
03:36 16.1 °C 14.8 °C 1012.4 hPa NNW 3.5 km/h 9.7 km/h 92% 0.0 mm 0 W/m2
03:41 16.1 °C 14.8 °C 1012.4 hPa NNW 7.2 km/h 9.7 km/h 92% 0.0 mm 0 W/m2
03:46 16.2 °C 14.9 °C 1012.4 hPa NNW 3.5 km/h 8.7 km/h 92% 0.0 mm 0 W/m2
03:51 16.2 °C 14.9 °C 1012.4 hPa NNW 5.0 km/h 9.7 km/h 92% 0.0 mm 0 W/m2
03:56 16.3 °C 15.0 °C 1012.1 hPa NNW 6.1 km/h 9.7 km/h 92% 0.0 mm 0 W/m2
04:01 16.3 °C 15.0 °C 1012.1 hPa NNW 5.0 km/h 11.1 km/h 92% 0.0 mm 0 W/m2
04:06 16.3 °C 15.0 °C 1012.1 hPa North 6.1 km/h 11.1 km/h 92% 0.0 mm 0 W/m2
04:11 16.3 °C 15.0 °C 1012.1 hPa North 2.6 km/h 11.1 km/h 92% 0.0 mm 0 W/m2
04:16 16.3 °C 14.8 °C 1012.1 hPa North 3.5 km/h 11.1 km/h 91% 0.0 mm 0 W/m2
04:21 16.4 °C 15.1 °C 1012.1 hPa NNW 6.1 km/h 9.7 km/h 92% 0.0 mm 0 W/m2
04:26 16.4 °C 15.1 °C 1012.1 hPa NNW 8.7 km/h 11.1 km/h 92% 0.0 mm 0 W/m2
04:31 16.6 °C 15.1 °C 1012.1 hPa North 6.1 km/h 11.1 km/h 91% 0.0 mm 0 W/m2
04:36 16.6 °C 14.9 °C 1011.7 hPa NNW 6.1 km/h 11.1 km/h 90% 0.0 mm 0 W/m2
04:41 16.7 °C 15.1 °C 1011.7 hPa NNW 7.2 km/h 9.7 km/h 90% 0.0 mm 0 W/m2
04:46 16.5 °C 14.9 °C 1011.7 hPa NNW 5.0 km/h 11.1 km/h 90% 0.0 mm 0 W/m2
04:51 16.4 °C 14.9 °C 1011.7 hPa NNW 6.1 km/h 11.1 km/h 91% 0.0 mm 0 W/m2
04:56 16.3 °C 14.8 °C 1011.7 hPa NNW 8.7 km/h 11.1 km/h 91% 0.0 mm 0 W/m2
05:01 16.3 °C 14.8 °C 1011.4 hPa NNW 5.0 km/h 12.2 km/h 91% 0.0 mm 0 W/m2
05:06 16.3 °C 14.8 °C 1011.7 hPa NNW 3.5 km/h 12.2 km/h 91% 0.0 mm 0 W/m2
05:11 16.2 °C 14.7 °C 1011.7 hPa NNW 5.0 km/h 8.7 km/h 91% 0.0 mm 0 W/m2
05:16 16.1 °C 14.6 °C 1012.1 hPa NW 7.2 km/h 8.7 km/h 91% 0.0 mm 0 W/m2
05:21 16.1 °C 14.6 °C 1012.1 hPa NW 9.7 km/h 14.8 km/h 91% 0.0 mm 0 W/m2
05:26 16.1 °C 14.6 °C 1012.1 hPa NW 6.1 km/h 14.8 km/h 91% 0.0 mm 0 W/m2
05:31 16.2 °C 14.7 °C 1012.1 hPa NW 8.7 km/h 14.8 km/h 91% 0.0 mm 0 W/m2
05:36 16.3 °C 14.7 °C 1012.4 hPa NNW 6.1 km/h 13.4 km/h 90% 0.0 mm 0 W/m2
05:41 16.4 °C 14.6 °C 1012.4 hPa NNW 6.1 km/h 12.2 km/h 89% 0.0 mm 0 W/m2
05:46 16.5 °C 14.5 °C 1012.1 hPa NNW 5.0 km/h 11.1 km/h 88% 0.0 mm 0 W/m2
05:51 16.5 °C 14.5 °C 1012.4 hPa North 3.5 km/h 9.7 km/h 88% 0.0 mm 0 W/m2
05:56 16.4 °C 14.4 °C 1012.4 hPa North 3.5 km/h 9.7 km/h 88% 0.0 mm 0 W/m2
06:01 16.4 °C 14.6 °C 1012.4 hPa North 6.1 km/h 8.7 km/h 89% 0.0 mm 1 W/m2
06:06 16.3 °C 14.5 °C 1012.4 hPa North 5.0 km/h 8.7 km/h 89% 0.0 mm 2 W/m2
06:11 16.3 °C 14.5 °C 1012.4 hPa North 3.5 km/h 8.7 km/h 89% 0.0 mm 4 W/m2
06:16 16.3 °C 14.7 °C 1012.4 hPa North 2.6 km/h 8.7 km/h 90% 0.0 mm 8 W/m2
06:21 16.4 °C 14.8 °C 1012.4 hPa North 2.6 km/h 8.7 km/h 90% 0.0 mm 12 W/m2
06:26 16.4 °C 14.8 °C 1012.4 hPa North 3.5 km/h 8.7 km/h 90% 0.0 mm 16 W/m2
06:31 16.5 °C 14.7 °C 1012.4 hPa North 5.0 km/h 8.7 km/h 89% 0.0 mm 19 W/m2
06:36 16.6 °C 14.8 °C 1012.4 hPa North 3.5 km/h 8.7 km/h 89% 0.0 mm 21 W/m2
06:41 16.7 °C 14.7 °C 1012.1 hPa North 7.2 km/h 11.1 km/h 88% 0.0 mm 25 W/m2
06:46 16.8 °C 14.6 °C 1012.1 hPa NNW 5.0 km/h 11.1 km/h 87% 0.0 mm 27 W/m2
06:51 16.8 °C 14.6 °C 1012.1 hPa NW 6.1 km/h 12.2 km/h 87% 0.0 mm 27 W/m2
06:56 16.8 °C 14.6 °C 1012.4 hPa NW 6.1 km/h 12.2 km/h 87% 0.0 mm 31 W/m2
07:01 16.8 °C 14.6 °C 1012.4 hPa NNW 5.0 km/h 9.7 km/h 87% 0.0 mm 28 W/m2
07:06 16.8 °C 14.6 °C 1012.4 hPa NNW 6.1 km/h 9.7 km/h 87% 0.0 mm 41 W/m2
07:11 16.9 °C 14.7 °C 1012.4 hPa NNW 6.1 km/h 8.7 km/h 87% 0.0 mm 56 W/m2
07:16 17.0 °C 14.7 °C 1012.8 hPa North 6.1 km/h 9.7 km/h 86% 0.0 mm 80 W/m2
07:21 17.1 °C 14.7 °C 1012.4 hPa NNW 8.7 km/h 12.2 km/h 86% 0.0 mm 112 W/m2
07:26 17.5 °C 14.9 °C 1012.4 hPa NNW 5.0 km/h 12.2 km/h 85% 0.0 mm 97 W/m2
07:31 18.0 °C 15.4 °C 1012.4 hPa NW 5.0 km/h 12.2 km/h 85% 0.0 mm 152 W/m2
07:36 18.5 °C 15.2 °C 1012.4 hPa NNW 6.1 km/h 12.2 km/h 81% 0.0 mm 174 W/m2
07:41 18.9 °C 15.2 °C 1012.1 hPa North 7.2 km/h 12.2 km/h 79% 0.0 mm 186 W/m2
07:46 19.3 °C 15.0 °C 1012.1 hPa North 2.6 km/h 12.2 km/h 76% 0.0 mm 258 W/m2
07:51 20.5 °C 15.5 °C 1012.8 hPa North 3.5 km/h 12.2 km/h 73% 0.0 mm 213 W/m2
07:56 21.1 °C 15.2 °C 1012.4 hPa NNE 5.0 km/h 9.7 km/h 69% 0.0 mm 106 W/m2
08:01 21.3 °C 14.7 °C 1012.4 hPa North 3.5 km/h 9.7 km/h 66% 0.0 mm 254 W/m2
08:06 21.3 °C 14.4 °C 1012.8 hPa North 6.1 km/h 11.1 km/h 65% 0.0 mm 267 W/m2
08:11 21.3 °C 14.7 °C 1012.8 hPa North 6.1 km/h 11.1 km/h 66% 0.0 mm 281 W/m2
08:16 21.8 °C 14.9 °C 1012.4 hPa North 6.1 km/h 11.1 km/h 65% 0.0 mm 298 W/m2
08:21 21.9 °C 14.6 °C 1012.4 hPa North 5.0 km/h 11.1 km/h 63% 0.0 mm 312 W/m2
08:26 22.3 °C 14.9 °C 1012.4 hPa NNW 5.0 km/h 11.1 km/h 63% 0.0 mm 329 W/m2
08:31 22.5 °C 15.1 °C 1012.8 hPa NW 2.6 km/h 11.1 km/h 63% 0.0 mm 345 W/m2
08:36 23.3 °C 15.4 °C 1012.8 hPa NNW 6.1 km/h 8.7 km/h 61% 0.0 mm 361 W/m2
08:41 23.4 °C 15.2 °C 1012.4 hPa North 3.5 km/h 8.7 km/h 60% 0.0 mm 380 W/m2
08:46 23.6 °C 15.1 °C 1012.4 hPa North 7.2 km/h 9.7 km/h 59% 0.0 mm 400 W/m2
08:51 23.7 °C 15.5 °C 1012.4 hPa Calm   9.7 km/h 60% 0.0 mm 417 W/m2
08:56 24.2 °C 15.2 °C 1012.4 hPa North 3.5 km/h 9.7 km/h 57% 0.0 mm 438 W/m2
09:01 23.9 °C 15.4 °C 1012.4 hPa NNW 6.1 km/h 11.1 km/h 59% 0.0 mm 455 W/m2
09:06 23.5 °C 15.1 °C 1012.4 hPa NW 7.2 km/h 11.1 km/h 59% 0.0 mm 472 W/m2
09:11 23.8 °C 15.6 °C 1012.4 hPa NNW 8.7 km/h 13.4 km/h 60% 0.0 mm 490 W/m2
09:16 23.7 °C 14.9 °C 1012.8 hPa NW 5.0 km/h 13.4 km/h 58% 0.0 mm 507 W/m2
09:21 24.0 °C 15.0 °C 1012.4 hPa NNW 5.0 km/h 11.1 km/h 57% 0.0 mm 528 W/m2
09:26 24.5 °C 14.6 °C 1012.4 hPa North 3.5 km/h 12.2 km/h 54% 0.0 mm 552 W/m2
09:31 24.8 °C 14.9 °C 1012.4 hPa North 3.5 km/h 12.2 km/h 54% 0.0 mm 574 W/m2
09:36 25.4 °C 14.2 °C 1012.4 hPa North 2.6 km/h 9.7 km/h 50% 0.0 mm 599 W/m2
09:41 26.4 °C 13.9 °C 1012.4 hPa NE 5.0 km/h 7.2 km/h 46% 0.0 mm 624 W/m2
09:46 26.3 °C 13.4 °C 1012.4 hPa ENE 2.6 km/h 7.2 km/h 45% 0.0 mm 648 W/m2
09:51 26.9 °C 14.0 °C 1012.4 hPa ENE 5.0 km/h 7.2 km/h 45% 0.0 mm 672 W/m2
09:56 26.1 °C 12.9 °C 1012.1 hPa North 5.0 km/h 11.1 km/h 44% 0.0 mm 700 W/m2
10:01 26.2 °C 12.7 °C 1012.1 hPa North 5.0 km/h 11.1 km/h 43% 0.0 mm 723 W/m2
10:06 26.8 °C 13.2 °C 1012.1 hPa North 2.6 km/h 11.1 km/h 43% 0.0 mm 742 W/m2
10:11 27.1 °C 12.7 °C 1012.1 hPa NNE 7.2 km/h 11.1 km/h 41% 0.0 mm 761 W/m2
10:17 27.1 °C 12.7 °C 1012.1 hPa NNE 8.7 km/h 14.8 km/h 41% 0.0 mm 775 W/m2
10:22 26.9 °C 12.9 °C 1012.1 hPa NNE 8.7 km/h 14.8 km/h 42% 0.0 mm 767 W/m2
10:27 27.3 °C 12.9 °C 1012.1 hPa North 11.1 km/h 13.4 km/h 41% 0.0 mm 783 W/m2
10:32 27.2 °C 12.4 °C 1012.1 hPa NNW 9.7 km/h 13.4 km/h 40% 0.0 mm 784 W/m2
10:37 27.3 °C 12.9 °C 1011.7 hPa North 7.2 km/h 13.4 km/h 41% 0.0 mm 809 W/m2
10:42 27.8 °C 13.4 °C 1011.7 hPa North 5.0 km/h 13.4 km/h 41% 0.0 mm 804 W/m2
10:47 28.3 °C 14.6 °C 1011.7 hPa North 8.7 km/h 12.2 km/h 43% 0.0 mm 833 W/m2
10:52 28.4 °C 13.9 °C 1011.7 hPa NNW 5.0 km/h 12.2 km/h 41% 0.0 mm 874 W/m2
10:57 28.6 °C 15.2 °C 1011.7 hPa NNW 8.7 km/h 12.2 km/h 44% 0.0 mm 908 W/m2
11:02 28.6 °C 14.4 °C 1012.1 hPa North 8.7 km/h 20.9 km/h 42% 0.0 mm 854 W/m2
11:07 28.5 °C 14.4 °C 1011.7 hPa NNW 3.5 km/h 20.9 km/h 42% 0.0 mm 899 W/m2
11:12 28.6 °C 14.1 °C 1011.7 hPa NNW 3.5 km/h 18.3 km/h 41% 0.0 mm 926 W/m2
11:17 28.8 °C 14.3 °C 1011.7 hPa NNW 3.5 km/h 13.4 km/h 41% 0.0 mm 929 W/m2
11:22 29.1 °C 14.6 °C 1011.4 hPa NNW 5.0 km/h 12.2 km/h 41% 0.0 mm 946 W/m2
11:27 29.5 °C 14.9 °C 1011.4 hPa North 7.2 km/h 11.1 km/h 41% 0.0 mm 964 W/m2
11:32 29.7 °C 14.7 °C 1011.1 hPa NNE 3.5 km/h 12.2 km/h 40% 0.0 mm 959 W/m2
11:37 30.0 °C 13.7 °C 1011.1 hPa NNE 2.6 km/h 12.2 km/h 37% 0.0 mm 971 W/m2
11:42 30.0 °C 13.7 °C 1011.1 hPa NNW 9.7 km/h 14.8 km/h 37% 0.0 mm 981 W/m2
11:47 29.8 °C 14.4 °C 1011.1 hPa NW 11.1 km/h 19.5 km/h 39% 0.0 mm 978 W/m2
11:52 30.1 °C 13.8 °C 1010.7 hPa WNW 7.2 km/h 19.5 km/h 37% 0.0 mm 990 W/m2
11:57 30.1 °C 13.4 °C 1010.7 hPa WSW 9.7 km/h 15.8 km/h 36% 0.0 mm 993 W/m2
12:02 30.3 °C 15.6 °C 1011.1 hPa SW 11.1 km/h 13.4 km/h 41% 0.0 mm 1002 W/m2
12:07 28.9 °C 16.5 °C 1010.7 hPa SSW 9.7 km/h 14.8 km/h 47% 0.0 mm 993 W/m2
12:12 28.2 °C 15.5 °C 1010.7 hPa South 12.2 km/h 15.8 km/h 46% 0.0 mm 980 W/m2
12:17 28.3 °C 15.6 °C 1010.7 hPa South 9.7 km/h 15.8 km/h 46% 0.0 mm 984 W/m2
12:22 28.6 °C 16.2 °C 1010.7 hPa South 9.7 km/h 15.8 km/h 47% 0.0 mm 983 W/m2
12:27 28.0 °C 15.3 °C 1010.7 hPa South 11.1 km/h 14.8 km/h 46% 0.0 mm 983 W/m2
12:33 27.7 °C 14.4 °C 1010.7 hPa South 6.1 km/h 14.8 km/h 44% 0.0 mm 982 W/m2
12:38 28.3 °C 15.6 °C 1010.7 hPa South 7.2 km/h 14.8 km/h 46% 0.0 mm 984 W/m2
12:43 28.4 °C 15.3 °C 1010.4 hPa South 11.1 km/h 14.8 km/h 45% 0.0 mm 986 W/m2
12:47 28.3 °C 15.6 °C 1010.7 hPa SSE 7.2 km/h 14.8 km/h 46% 0.0 mm 983 W/m2
12:52 28.0 °C 15.3 °C 1010.7 hPa South 6.1 km/h 14.8 km/h 46% 0.0 mm 977 W/m2
12:57 28.3 °C 15.3 °C 1010.7 hPa South 8.7 km/h 14.8 km/h 45% 0.0 mm 978 W/m2
13:02 28.2 °C 15.5 °C 1010.7 hPa SSE 9.7 km/h 17.2 km/h 46% 0.0 mm 982 W/m2
13:07 27.5 °C 15.6 °C 1010.4 hPa SE 7.2 km/h 17.2 km/h 48% 0.0 mm 975 W/m2
13:12 27.7 °C 15.7 °C 1010.4 hPa SE 11.1 km/h 14.8 km/h 48% 0.0 mm 971 W/m2
13:17 27.5 °C 15.2 °C 1010.4 hPa SSE 7.2 km/h 14.8 km/h 47% 0.0 mm 967 W/m2
13:23 27.7 °C 15.4 °C 1010.4 hPa South 9.7 km/h 17.2 km/h 47% 0.0 mm 967 W/m2
13:28 27.6 °C 15.3 °C 1010.7 hPa SSE 11.1 km/h 17.2 km/h 47% 0.0 mm 962 W/m2
13:33 27.2 °C 16.2 °C 1010.4 hPa SSE 5.0 km/h 17.2 km/h 51% 0.0 mm 952 W/m2
13:38 27.4 °C 14.8 °C 1010.4 hPa SE 7.2 km/h 18.3 km/h 46% 0.0 mm 950 W/m2
13:43 27.0 °C 14.1 °C 1010.4 hPa SSE 7.2 km/h 18.3 km/h 45% 0.0 mm 945 W/m2
13:48 27.5 °C 14.2 °C 1010.0 hPa SSE 7.2 km/h 18.3 km/h 44% 0.0 mm 943 W/m2
13:53 27.8 °C 14.1 °C 1010.0 hPa SSE 9.7 km/h 17.2 km/h 43% 0.0 mm 943 W/m2
13:58 27.5 °C 13.8 °C 1010.0 hPa SSE 7.2 km/h 20.9 km/h 43% 0.0 mm 933 W/m2
14:03 27.8 °C 15.2 °C 1010.4 hPa SSE 8.7 km/h 20.9 km/h 46% 0.0 mm 930 W/m2
14:08 28.0 °C 15.3 °C 1010.0 hPa SSE 12.2 km/h 15.8 km/h 46% 0.0 mm 925 W/m2
14:13 27.4 °C 14.4 °C 1010.0 hPa SE 9.7 km/h 21.9 km/h 45% 0.0 mm 915 W/m2
14:18 27.3 °C 13.7 °C 1010.0 hPa SSE 8.7 km/h 21.9 km/h 43% 0.0 mm 909 W/m2
14:23 27.6 °C 14.3 °C 1010.4 hPa SE 8.7 km/h 18.3 km/h 44% 0.0 mm 897 W/m2
14:28 28.1 °C 15.1 °C 1010.0 hPa SE 7.2 km/h 18.3 km/h 45% 0.0 mm 895 W/m2
14:33 28.7 °C 14.2 °C 1010.0 hPa SE 7.2 km/h 15.8 km/h 41% 0.0 mm 896 W/m2
14:38 28.9 °C 14.3 °C 1010.0 hPa ESE 5.0 km/h 15.8 km/h 41% 0.0 mm 890 W/m2
14:43 29.0 °C 13.7 °C 1010.0 hPa ESE 8.7 km/h 15.8 km/h 39% 0.0 mm 880 W/m2
14:48 28.5 °C 14.0 °C 1010.0 hPa ESE 8.7 km/h 15.8 km/h 41% 0.0 mm 867 W/m2
14:53 28.9 °C 15.1 °C 1010.0 hPa ESE 5.0 km/h 15.8 km/h 43% 0.0 mm 862 W/m2
14:58 29.4 °C 13.2 °C 1010.0 hPa ESE 6.1 km/h 15.8 km/h 37% 0.0 mm 853 W/m2
15:03 29.9 °C 14.5 °C 1010.0 hPa ESE 8.7 km/h 14.8 km/h 39% 0.0 mm 852 W/m2
15:08 30.0 °C 12.9 °C 1010.0 hPa ESE 7.2 km/h 13.4 km/h 35% 0.0 mm 846 W/m2
15:13 30.0 °C 12.4 °C 1010.0 hPa ESE 9.7 km/h 13.4 km/h 34% 0.0 mm 834 W/m2
15:18 29.7 °C 13.1 °C 1010.0 hPa ESE 11.1 km/h 20.9 km/h 36% 0.0 mm 821 W/m2
15:23 30.0 °C 12.9 °C 1010.0 hPa ESE 5.0 km/h 20.9 km/h 35% 0.0 mm 814 W/m2
15:28 30.4 °C 13.2 °C 1010.0 hPa East 8.7 km/h 14.8 km/h 35% 0.0 mm 800 W/m2
15:33 30.4 °C 13.2 °C 1009.7 hPa East 8.7 km/h 14.8 km/h 35% 0.0 mm 796 W/m2
15:38 30.5 °C 13.3 °C 1009.7 hPa East 3.5 km/h 14.8 km/h 35% 0.0 mm 779 W/m2
15:43 30.5 °C 12.9 °C 1009.7 hPa ESE 6.1 km/h 14.8 km/h 34% 0.0 mm 770 W/m2
15:48 30.6 °C 12.5 °C 1009.7 hPa ESE 5.0 km/h 12.2 km/h 33% 0.0 mm 759 W/m2
15:53 30.4 °C 12.3 °C 1009.7 hPa ESE 6.1 km/h 12.2 km/h 33% 0.0 mm 747 W/m2
15:58 30.5 °C 12.4 °C 1009.7 hPa ESE 5.0 km/h 13.4 km/h 33% 0.0 mm 734 W/m2
16:03 30.9 °C 12.8 °C 1009.7 hPa SE 6.1 km/h 13.4 km/h 33% 0.0 mm 721 W/m2
16:08 31.5 °C 12.8 °C 1009.7 hPa SE 5.0 km/h 11.1 km/h 32% 0.0 mm 715 W/m2
16:13 31.0 °C 11.9 °C 1009.7 hPa ESE 5.0 km/h 12.2 km/h 31% 0.0 mm 700 W/m2
16:18 30.8 °C 11.3 °C 1009.7 hPa ESE 6.1 km/h 13.4 km/h 30% 0.0 mm 682 W/m2
16:23 30.9 °C 11.3 °C 1009.7 hPa SE 3.5 km/h 13.4 km/h 30% 0.0 mm 671 W/m2
16:28 31.2 °C 12.1 °C 1009.4 hPa SSE 6.1 km/h 12.2 km/h 31% 0.0 mm 661 W/m2
16:33 31.3 °C 12.2 °C 1009.4 hPa SSE 3.5 km/h 11.1 km/h 31% 0.0 mm 646 W/m2
16:38 31.6 °C 12.4 °C 1009.4 hPa Calm   11.1 km/h 31% 0.0 mm 631 W/m2
16:43 31.6 °C 11.4 °C 1009.4 hPa SE 6.1 km/h 12.2 km/h 29% 0.0 mm 618 W/m2
16:48 31.2 °C 10.6 °C 1009.4 hPa ESE 5.0 km/h 12.2 km/h 28% 0.0 mm 601 W/m2
16:53 31.2 °C 10.6 °C 1009.4 hPa ESE 2.6 km/h 13.4 km/h 28% 0.0 mm 586 W/m2
16:58 31.7 °C 12.0 °C 1009.4 hPa ESE 5.0 km/h 13.4 km/h 30% 0.0 mm 572 W/m2
17:03 32.0 °C 11.2 °C 1009.4 hPa SE 3.5 km/h 12.2 km/h 28% 0.0 mm 559 W/m2
17:08 31.9 °C 11.7 °C 1009.4 hPa SE 6.1 km/h 12.2 km/h 29% 0.0 mm 542 W/m2
17:13 31.5 °C 10.8 °C 1009.4 hPa ESE 5.0 km/h 11.1 km/h 28% 0.0 mm 526 W/m2
17:18 31.2 °C 10.0 °C 1009.0 hPa ESE 6.1 km/h 11.1 km/h 27% 0.0 mm 510 W/m2
17:23 31.5 °C 10.3 °C 1009.0 hPa ESE 6.1 km/h 9.7 km/h 27% 0.0 mm 497 W/m2
17:28 31.9 °C 10.1 °C 1009.4 hPa SE 5.0 km/h 11.1 km/h 26% 0.0 mm 480 W/m2
17:33 31.7 °C 9.9 °C 1009.4 hPa SE 5.0 km/h 11.1 km/h 26% 0.0 mm 467 W/m2
17:38 31.6 °C 10.3 °C 1009.0 hPa ESE 5.0 km/h 11.1 km/h 27% 0.0 mm 450 W/m2
17:43 31.1 °C 10.4 °C 1009.0 hPa ESE 6.1 km/h 11.1 km/h 28% 0.0 mm 433 W/m2
17:48 31.3 °C 10.1 °C 1009.0 hPa SE 3.5 km/h 11.1 km/h 27% 0.0 mm 418 W/m2
17:53 31.9 °C 10.1 °C 1009.0 hPa SSE 2.6 km/h 9.7 km/h 26% 0.0 mm 404 W/m2
17:58 31.7 °C 9.9 °C 1009.0 hPa SE 6.1 km/h 9.7 km/h 26% 0.0 mm 394 W/m2
18:03 31.7 °C 9.9 °C 1008.7 hPa SE 3.5 km/h 9.7 km/h 26% 0.0 mm 375 W/m2
18:08 31.7 °C 9.3 °C 1008.7 hPa SE 3.5 km/h 11.1 km/h 25% 0.0 mm 359 W/m2
18:13 32.1 °C 9.6 °C 1008.7 hPa SE 2.6 km/h 11.1 km/h 25% 0.0 mm 347 W/m2
18:18 32.4 °C 9.9 °C 1008.4 hPa SE 3.5 km/h 9.7 km/h 25% 0.0 mm 331 W/m2
18:23 32.3 °C 9.2 °C 1008.7 hPa SSE 3.5 km/h 9.7 km/h 24% 0.0 mm 319 W/m2
18:28 31.9 °C 10.1 °C 1008.7 hPa SSE 3.5 km/h 8.7 km/h 26% 0.0 mm 305 W/m2
18:33 31.7 °C 9.9 °C 1008.7 hPa South 3.5 km/h 8.7 km/h 26% 0.0 mm 292 W/m2
18:38 31.9 °C 10.1 °C 1008.7 hPa SSE 3.5 km/h 7.2 km/h 26% 0.0 mm 277 W/m2
18:43 32.1 °C 10.2 °C 1008.7 hPa SSE 5.0 km/h 8.7 km/h 26% 0.0 mm 264 W/m2
18:48 31.7 °C 11.5 °C 1008.4 hPa SSE 2.6 km/h 8.7 km/h 29% 0.0 mm 251 W/m2
18:53 32.0 °C 10.7 °C 1008.4 hPa SSE 2.6 km/h 8.7 km/h 27% 0.0 mm 238 W/m2
18:58 31.9 °C 11.2 °C 1008.4 hPa SSE 3.5 km/h 8.7 km/h 28% 0.0 mm 226 W/m2
19:03 31.6 °C 10.9 °C 1008.4 hPa SSE 3.5 km/h 8.7 km/h 28% 0.0 mm 214 W/m2
19:08 31.7 °C 12.0 °C 1008.4 hPa SSE 6.1 km/h 8.7 km/h 30% 0.0 mm 202 W/m2
19:13 31.3 °C 12.2 °C 1008.4 hPa SSE 3.5 km/h 8.7 km/h 31% 0.0 mm 191 W/m2
19:18 30.8 °C 11.7 °C 1008.4 hPa South 5.0 km/h 9.7 km/h 31% 0.0 mm 180 W/m2
19:23 30.1 °C 14.7 °C 1008.4 hPa South 2.6 km/h 9.7 km/h 39% 0.0 mm 170 W/m2
19:28 30.5 °C 15.8 °C 1008.4 hPa SSE 2.6 km/h 9.7 km/h 41% 0.0 mm 158 W/m2
19:33 30.3 °C 16.3 °C 1008.7 hPa SE 3.5 km/h 7.2 km/h 43% 0.0 mm 146 W/m2
19:38 30.1 °C 15.8 °C 1008.7 hPa Calm   7.2 km/h 42% 0.0 mm 135 W/m2
19:43 30.5 °C 14.6 °C 1008.7 hPa Calm   6.1 km/h 38% 0.0 mm 124 W/m2
19:48 30.9 °C 14.9 °C 1008.7 hPa West 1.1 km/h 3.5 km/h 38% 0.0 mm 113 W/m2
19:53 30.7 °C 15.9 °C 1008.7 hPa West 1.1 km/h 5.0 km/h 41% 0.0 mm 101 W/m2
19:58 30.1 °C 14.7 °C 1008.7 hPa West 1.1 km/h 5.0 km/h 39% 0.0 mm 88 W/m2
20:03 29.6 °C 12.6 °C 1009.0 hPa NW 5.0 km/h 11.1 km/h 35% 0.0 mm 75 W/m2
20:08 28.6 °C 10.8 °C 1008.7 hPa NW 15.8 km/h 19.5 km/h 33% 0.0 mm 60 W/m2
20:13 28.3 °C 10.5 °C 1009.0 hPa NW 7.2 km/h 19.5 km/h 33% 0.0 mm 45 W/m2
20:18 27.9 °C 9.2 °C 1008.7 hPa NW 7.2 km/h 19.5 km/h 31% 0.0 mm 22 W/m2
20:23 27.3 °C 9.2 °C 1009.0 hPa WNW 6.1 km/h 14.8 km/h 32% 0.0 mm 15 W/m2
20:28 26.8 °C 9.2 °C 1009.4 hPa NW 3.5 km/h 11.1 km/h 33% 0.0 mm 12 W/m2
20:33 26.4 °C 9.3 °C 1009.4 hPa NW 5.0 km/h 9.7 km/h 34% 0.0 mm 8 W/m2
20:38 26.1 °C 9.9 °C 1009.0 hPa NW 2.6 km/h 7.2 km/h 36% 0.0 mm 5 W/m2
20:43 25.9 °C 10.5 °C 1009.4 hPa NW 3.5 km/h 7.2 km/h 38% 0.0 mm 2 W/m2
20:48 25.7 °C 9.9 °C 1009.4 hPa NW 7.2 km/h 12.2 km/h 37% 0.0 mm 0 W/m2
20:53 25.6 °C 9.8 °C 1009.4 hPa NNW 7.2 km/h 13.4 km/h 37% 0.0 mm 0 W/m2
20:58 25.4 °C 9.7 °C 1009.4 hPa NNW 5.0 km/h 13.4 km/h 37% 0.0 mm 0 W/m2
21:03 25.2 °C 9.5 °C 1009.4 hPa NNW 3.5 km/h 11.1 km/h 37% 0.0 mm 0 W/m2
21:08 25.0 °C 9.3 °C 1009.7 hPa NNW 5.0 km/h 9.7 km/h 37% 0.0 mm 0 W/m2
21:13 24.9 °C 9.6 °C 1009.7 hPa NNW 5.0 km/h 9.7 km/h 38% 0.0 mm 0 W/m2
21:18 24.8 °C 9.6 °C 1009.7 hPa NNW 5.0 km/h 12.2 km/h 38% 0.0 mm 0 W/m2
21:23 24.7 °C 9.4 °C 1009.7 hPa NNW 5.0 km/h 12.2 km/h 38% 0.0 mm 0 W/m2
21:28 24.5 °C 9.3 °C 1009.7 hPa NNW 3.5 km/h 12.2 km/h 38% 0.0 mm 0 W/m2
21:29 24.5 °C 9.3 °C 1009.7 hPa NNW 6.1 km/h 12.2 km/h 38% 0.0 mm 0 W/m2
21:35 24.4 °C 9.2 °C 1010.0 hPa NNW 7.2 km/h 12.2 km/h 38% 0.0 mm 0 W/m2
21:40 24.5 °C 8.9 °C 1010.0 hPa NW 8.7 km/h 17.2 km/h 37% 0.0 mm 0 W/m2
21:45 24.5 °C 8.9 °C 1010.0 hPa NW 8.7 km/h 17.2 km/h 37% 0.0 mm 0 W/m2
21:50 24.4 °C 8.8 °C 1010.0 hPa NW 8.7 km/h 15.8 km/h 37% 0.0 mm 0 W/m2
21:55 24.3 °C 8.7 °C 1010.0 hPa NNW 8.7 km/h 15.8 km/h 37% 0.0 mm 0 W/m2
22:00 24.1 °C 8.5 °C 1010.0 hPa NW 11.1 km/h 17.2 km/h 37% 0.0 mm 0 W/m2
22:05 24.1 °C 8.5 °C 1010.0 hPa NW 8.7 km/h 19.5 km/h 37% 0.0 mm 0 W/m2
22:10 23.9 °C 9.1 °C 1010.4 hPa NNW 6.1 km/h 19.5 km/h 39% 0.0 mm 0 W/m2
22:15 23.7 °C 8.9 °C 1010.4 hPa NNW 7.2 km/h 15.8 km/h 39% 0.0 mm 0 W/m2
22:20 23.6 °C 8.8 °C 1010.4 hPa NNW 6.1 km/h 15.8 km/h 39% 0.0 mm 0 W/m2
22:25 23.5 °C 8.8 °C 1010.4 hPa NNW 7.2 km/h 13.4 km/h 39% 0.0 mm 0 W/m2
22:30 23.5 °C 8.8 °C 1010.4 hPa North 14.8 km/h 19.5 km/h 39% 0.0 mm 0 W/m2
22:35 23.5 °C 8.8 °C 1010.4 hPa NNW 8.7 km/h 19.5 km/h 39% 0.0 mm 0 W/m2
22:40 23.4 °C 8.7 °C 1010.4 hPa NW 8.7 km/h 19.5 km/h 39% 0.0 mm 0 W/m2
22:45 23.2 °C 8.5 °C 1010.4 hPa NNW 8.7 km/h 14.8 km/h 39% 0.0 mm 0 W/m2
22:50 23.2 °C 8.5 °C 1010.4 hPa NNW 7.2 km/h 17.2 km/h 39% 0.0 mm 0 W/m2
22:55 23.1 °C 8.4 °C 1010.4 hPa NNW 9.7 km/h 17.2 km/h 39% 0.0 mm 0 W/m2
23:00 23.0 °C 8.7 °C 1010.4 hPa NW 9.7 km/h 17.2 km/h 40% 0.0 mm 0 W/m2
23:05 22.9 °C 8.6 °C 1010.4 hPa NW 9.7 km/h 18.3 km/h 40% 0.0 mm 0 W/m2
23:10 22.8 °C 8.5 °C 1010.4 hPa NNW 9.7 km/h 18.3 km/h 40% 0.0 mm 0 W/m2
23:15 22.7 °C 8.4 °C 1010.0 hPa NNW 7.2 km/h 18.3 km/h 40% 0.0 mm 0 W/m2
23:20 22.6 °C 8.7 °C 1010.4 hPa NNW 12.2 km/h 20.9 km/h 41% 0.0 mm 0 W/m2
23:25 22.4 °C 8.5 °C 1010.4 hPa NNW 8.7 km/h 20.9 km/h 41% 0.0 mm 0 W/m2
23:30 22.2 °C 8.3 °C 1010.4 hPa NNW 9.7 km/h 17.2 km/h 41% 0.0 mm 0 W/m2
23:35 22.1 °C 8.2 °C 1010.4 hPa NNW 11.1 km/h 18.3 km/h 41% 0.0 mm 0 W/m2
23:40 22.2 °C 8.3 °C 1010.4 hPa NNW 8.7 km/h 23.3 km/h 41% 0.0 mm 0 W/m2
23:45 22.1 °C 8.6 °C 1010.4 hPa NNW 11.1 km/h 23.3 km/h 42% 0.0 mm 0 W/m2
23:50 22.1 °C 8.6 °C 1010.4 hPa NW 11.1 km/h 20.9 km/h 42% 0.0 mm 0 W/m2
23:56 22.0 °C 8.5 °C 1010.0 hPa NW 11.1 km/h 23.3 km/h 42% 0.0 mm 0 W/m2
Northern Hawkes Bay. New Zealand Historic Data
Compliments of Weather Underground - 2.25 mb